Time;durP1;ratioP1;P1;durP2;ratioP2;P2;SDS_P1;SDS_P2;PMS_P1;PMS_P2;Temp;Humidity;BMP_temperature;BMP_pressure;BME280_temperature;BME280_humidity;BME280_pressure;Samples;Min_cycle;Max_cycle;Signal;HPM_P1;HPM_P2
2022/02/21 00:00:52;;;;;;;0.43;0.20;;;;;;;;;;5034651;28;20067;-75
2022/02/21 00:03:20;;;;;;;1.35;0.32;;;;;;;;;;5034207;28;20026;-76
2022/02/21 00:05:46;;;;;;;0.20;0.08;;;;;;;;;;5033601;28;20014;-76
2022/02/21 00:08:11;;;;;;;0.63;0.40;;;;;;;;;;5034718;28;20024;-75
2022/02/21 00:10:36;;;;;;;0.80;0.30;;;;;;;;;;5034654;28;20032;-76
2022/02/21 00:13:01;;;;;;;0.10;0.10;;;;;;;;;;5034210;28;20025;-76
2022/02/21 00:15:27;;;;;;;1.13;0.45;;;;;;;;;;5033844;28;20053;-75
2022/02/21 00:17:53;;;;;;;1.02;0.40;;;;;;;;;;5033985;28;20018;-77
2022/02/21 00:20:19;;;;;;;0.63;0.25;;;;;;;;;;5033945;28;20024;-76
2022/02/21 00:22:44;;;;;;;1.52;0.28;;;;;;;;;;5032440;28;20022;-76
2022/02/21 00:25:10;;;;;;;2.45;0.38;;;;;;;;;;5033752;28;20167;-77
2022/02/21 00:27:35;;;;;;;1.30;0.35;;;;;;;;;;5032521;28;20476;-76
2022/02/21 00:30:01;;;;;;;1.58;0.45;;;;;;;;;;5033495;28;20030;-77
2022/02/21 00:32:26;;;;;;;2.08;0.50;;;;;;;;;;5031898;28;20708;-77
2022/02/21 00:34:51;;;;;;;1.85;0.60;;;;;;;;;;5033246;28;20408;-77
2022/02/21 00:37:16;;;;;;;2.85;1.13;;;;;;;;;;5033262;28;20029;-76
2022/02/21 00:39:41;;;;;;;1.05;0.20;;;;;;;;;;5033307;28;20040;-76
2022/02/21 00:42:07;;;;;;;1.88;0.55;;;;;;;;;;5033070;28;20102;-76
2022/02/21 00:44:32;;;;;;;3.28;0.45;;;;;;;;;;5033189;28;20038;-75
2022/02/21 00:47:00;;;;;;;4.38;0.50;;;;;;;;;;5031959;28;20563;-75
2022/02/21 00:49:25;;;;;;;0.80;0.30;;;;;;;;;;5032341;28;20017;-75
2022/02/21 00:51:50;;;;;;;1.27;0.50;;;;;;;;;;5031870;28;20021;-76
2022/02/21 00:54:15;;;;;;;2.25;0.60;;;;;;;;;;5033173;28;20041;-76
2022/02/21 00:56:40;;;;;;;2.15;0.20;;;;;;;;;;5032085;28;20014;-76
2022/02/21 00:59:05;;;;;;;2.58;0.43;;;;;;;;;;5031809;28;20554;-76
2022/02/21 01:01:31;;;;;;;2.08;0.20;;;;;;;;;;5033267;28;20100;-77
2022/02/21 01:03:56;;;;;;;0.40;0.10;;;;;;;;;;5031223;28;20028;-76
2022/02/21 01:06:21;;;;;;;2.75;0.50;;;;;;;;;;5032902;28;20021;-76
2022/02/21 01:08:46;;;;;;;0.50;0.20;;;;;;;;;;5030813;28;20547;-76
2022/02/21 01:11:12;;;;;;;0.52;0.15;;;;;;;;;;5031412;28;20132;-76
2022/02/21 01:13:37;;;;;;;0.00;0.00;;;;;;;;;;5032116;28;20028;-75
2022/02/21 01:16:03;;;;;;;1.77;0.45;;;;;;;;;;5032864;28;20045;-76
2022/02/21 01:18:28;;;;;;;0.17;0.10;;;;;;;;;;5032671;28;20017;-75
2022/02/21 01:20:53;;;;;;;2.28;0.30;;;;;;;;;;5032638;28;20017;-75
2022/02/21 01:23:18;;;;;;;0.47;0.10;;;;;;;;;;5032125;28;20018;-77
2022/02/21 01:25:43;;;;;;;1.77;0.50;;;;;;;;;;5032878;28;20477;-76
2022/02/21 01:28:09;;;;;;;1.10;0.40;;;;;;;;;;5032704;28;20032;-77
2022/02/21 01:30:34;;;;;;;0.10;0.10;;;;;;;;;;5032487;28;20018;-76
2022/02/21 01:32:59;;;;;;;5.40;0.30;;;;;;;;;;5031936;28;20381;-76
2022/02/21 01:35:24;;;;;;;0.85;0.40;;;;;;;;;;5032275;28;20025;-77
2022/02/21 01:37:50;;;;;;;1.83;0.25;;;;;;;;;;5031135;28;20155;-75
2022/02/21 01:40:16;;;;;;;0.22;0.20;;;;;;;;;;5032339;28;20017;-76
2022/02/21 01:42:41;;;;;;;0.70;0.17;;;;;;;;;;5031860;28;20033;-76
2022/02/21 01:45:07;;;;;;;2.22;0.40;;;;;;;;;;5032233;28;20389;-76
2022/02/21 01:47:32;;;;;;;0.15;0.05;;;;;;;;;;5032188;28;20028;-76
2022/02/21 01:49:58;;;;;;;2.25;0.40;;;;;;;;;;5030727;28;20021;-75
2022/02/21 01:52:23;;;;;;;0.30;0.20;;;;;;;;;;5031869;28;20023;-76
2022/02/21 01:54:50;;;;;;;0.30;0.20;;;;;;;;;;5030931;28;20075;-75
2022/02/21 01:57:15;;;;;;;0.93;0.20;;;;;;;;;;5032004;28;20061;-76
2022/02/21 01:59:40;;;;;;;0.28;0.10;;;;;;;;;;5032132;28;20049;-75
2022/02/21 02:02:06;;;;;;;0.20;0.10;;;;;;;;;;5030397;28;20022;-75
2022/02/21 02:04:32;;;;;;;2.03;0.38;;;;;;;;;;5031732;28;20376;-76
2022/02/21 02:06:58;;;;;;;0.08;0.00;;;;;;;;;;5031090;28;20026;-75
2022/02/21 02:09:23;;;;;;;0.70;0.22;;;;;;;;;;5032134;28;20080;-74
2022/02/21 02:11:49;;;;;;;0.77;0.35;;;;;;;;;;5031756;28;20027;-75
2022/02/21 02:14:27;;;;;;;0.20;0.10;;;;;;;;;;5031947;28;20382;-75
2022/02/21 02:16:53;;;;;;;0.77;0.20;;;;;;;;;;5032098;28;20493;-74
2022/02/21 02:19:18;;;;;;;0.20;0.10;;;;;;;;;;5032575;28;20111;-75
2022/02/21 02:21:44;;;;;;;0.13;0.03;;;;;;;;;;5035918;28;20476;-76
2022/02/21 02:24:09;;;;;;;0.43;0.17;;;;;;;;;;5035473;28;20128;-75
2022/02/21 02:26:38;;;;;;;0.22;0.15;;;;;;;;;;5035893;28;20100;-76
2022/02/21 02:29:03;;;;;;;0.00;0.00;;;;;;;;;;5035815;28;20036;-76
2022/02/21 02:31:28;;;;;;;0.28;0.10;;;;;;;;;;5035717;28;20526;-76
2022/02/21 02:33:53;;;;;;;1.17;0.47;;;;;;;;;;5035256;28;20048;-77
2022/02/21 02:36:19;;;;;;;0.70;0.35;;;;;;;;;;5034493;28;20025;-76
2022/02/21 02:38:44;;;;;;;0.35;0.17;;;;;;;;;;5035753;28;20068;-77
2022/02/21 02:41:09;;;;;;;0.20;0.20;;;;;;;;;;5035513;28;20384;-76
2022/02/21 02:43:39;;;;;;;1.02;0.20;;;;;;;;;;5033823;28;20014;-77
2022/02/21 02:46:04;;;;;;;0.95;0.22;;;;;;;;;;5035568;28;20024;-75
2022/02/21 02:48:29;;;;;;;12.55;1.23;;;;;;;;;;5034444;28;20033;-76
2022/02/21 02:50:54;;;;;;;2.95;0.60;;;;;;;;;;5035068;28;20026;-78
2022/02/21 02:53:20;;;;;;;2.35;0.40;;;;;;;;;;5034366;28;20569;-77
2022/02/21 02:55:45;;;;;;;2.20;0.43;;;;;;;;;;5035255;28;20017;-77
2022/02/21 02:58:10;;;;;;;2.25;0.60;;;;;;;;;;5035114;28;20058;-77
2022/02/21 03:00:35;;;;;;;2.85;0.63;;;;;;;;;;5035148;28;20017;-78
2022/02/21 03:03:00;;;;;;;3.33;0.50;;;;;;;;;;5035110;28;20025;-78
2022/02/21 03:05:26;;;;;;;2.78;0.32;;;;;;;;;;5035424;28;20021;-78
2022/02/21 03:07:51;;;;;;;2.25;0.40;;;;;;;;;;5034252;28;20477;-79
2022/02/21 03:10:16;;;;;;;2.40;0.50;;;;;;;;;;5035932;28;20507;-78
2022/02/21 03:12:43;;;;;;;0.82;0.38;;;;;;;;;;5035432;28;20060;-77
2022/02/21 03:15:09;;;;;;;3.15;0.63;;;;;;;;;;5035309;28;20040;-77
2022/02/21 03:17:34;;;;;;;2.58;0.40;;;;;;;;;;5035776;28;20381;-77
2022/02/21 03:19:59;;;;;;;1.30;0.32;;;;;;;;;;5035221;28;20079;-76
2022/02/21 03:22:25;;;;;;;0.60;0.22;;;;;;;;;;5036366;28;20021;-76
2022/02/21 03:24:50;;;;;;;0.90;0.30;;;;;;;;;;5033916;28;20017;-78
2022/02/21 03:27:15;;;;;;;0.85;0.30;;;;;;;;;;5035403;28;20607;-78
2022/02/21 03:29:42;;;;;;;2.67;0.38;;;;;;;;;;5035024;28;20014;-78
2022/02/21 03:32:07;;;;;;;1.17;0.20;;;;;;;;;;5032762;28;20064;-76
2022/02/21 03:34:32;;;;;;;1.42;0.50;;;;;;;;;;5035150;28;20071;-78
2022/02/21 03:36:58;;;;;;;2.45;0.30;;;;;;;;;;5035938;28;20388;-77
2022/02/21 03:39:24;;;;;;;1.17;0.30;;;;;;;;;;5036918;28;20028;-76
2022/02/21 03:41:49;;;;;;;1.10;0.32;;;;;;;;;;5035936;28;20147;-76
2022/02/21 03:44:14;;;;;;;4.10;0.60;;;;;;;;;;5035844;28;20511;-77
2022/02/21 03:46:41;;;;;;;1.85;0.75;;;;;;;;;;5035286;28;20104;-76
2022/02/21 03:49:06;;;;;;;0.85;0.30;;;;;;;;;;5035842;28;20033;-76
2022/02/21 03:51:32;;;;;;;1.23;0.40;;;;;;;;;;5035808;28;20029;-76
2022/02/21 03:53:57;;;;;;;3.00;0.55;;;;;;;;;;5035731;28;20028;-76
2022/02/21 03:56:22;;;;;;;2.55;0.45;;;;;;;;;;5037268;28;20074;-77
2022/02/21 03:58:48;;;;;;;0.73;0.32;;;;;;;;;;5037787;28;20060;-76
2022/02/21 04:01:13;;;;;;;4.70;0.70;;;;;;;;;;5039119;28;20013;-77
2022/02/21 04:03:38;;;;;;;4.03;0.70;;;;;;;;;;5038602;28;20017;-76
2022/02/21 04:06:03;;;;;;;1.83;0.60;;;;;;;;;;5039206;28;20017;-76
2022/02/21 04:08:29;;;;;;;1.92;0.55;;;;;;;;;;5039097;28;20017;-77
2022/02/21 04:10:54;;;;;;;7.32;0.80;;;;;;;;;;5038981;28;20022;-77
2022/02/21 04:13:19;;;;;;;1.52;0.82;;;;;;;;;;5035999;28;20539;-75
2022/02/21 04:15:45;;;;;;;1.20;0.54;;;;;;;;;;5039433;28;20075;-76
2022/02/21 04:18:10;;;;;;;1.60;0.57;;;;;;;;;;5039850;28;20121;-75
2022/02/21 04:20:36;;;;;;;1.98;0.52;;;;;;;;;;5039336;28;20021;-76
2022/02/21 04:23:01;;;;;;;1.80;0.90;;;;;;;;;;5037821;28;20496;-75
2022/02/21 04:25:26;;;;;;;2.72;0.85;;;;;;;;;;5038031;28;20022;-76
2022/02/21 04:27:52;;;;;;;3.67;0.98;;;;;;;;;;5037432;28;20021;-76
2022/02/21 04:30:22;;;;;;;3.20;0.50;;;;;;;;;;5036111;28;20021;-76
2022/02/21 04:32:48;;;;;;;1.23;0.52;;;;;;;;;;5035354;28;20040;-75
2022/02/21 04:35:15;;;;;;;2.65;0.60;;;;;;;;;;5035143;28;20053;-75
2022/02/21 04:37:40;;;;;;;5.25;1.58;;;;;;;;;;5035217;28;20076;-77
2022/02/21 04:40:07;;;;;;;2.03;0.40;;;;;;;;;;5035052;28;20615;-76
2022/02/21 04:42:32;;;;;;;6.50;0.55;;;;;;;;;;5034055;28;20031;-76
2022/02/21 04:44:57;;;;;;;1.73;0.63;;;;;;;;;;5032604;28;20037;-76
2022/02/21 04:47:22;;;;;;;0.93;0.30;;;;;;;;;;5035705;28;20029;-77
2022/02/21 04:49:48;;;;;;;3.05;0.40;;;;;;;;;;5034022;28;20204;-76
2022/02/21 04:52:13;;;;;;;0.30;0.20;;;;;;;;;;5035569;28;20112;-76
2022/02/21 04:54:38;;;;;;;2.92;0.50;;;;;;;;;;5034621;28;20049;-77
2022/02/21 04:57:04;;;;;;;2.70;0.60;;;;;;;;;;5033402;28;20095;-75
2022/02/21 04:59:29;;;;;;;0.95;0.30;;;;;;;;;;5034427;28;20017;-76
2022/02/21 05:01:54;;;;;;;2.33;0.47;;;;;;;;;;5034087;28;20021;-78
2022/02/21 05:04:19;;;;;;;1.00;0.50;;;;;;;;;;5035987;28;20537;-76
2022/02/21 05:06:45;;;;;;;0.68;0.40;;;;;;;;;;5036698;28;20021;-75
2022/02/21 05:09:10;;;;;;;2.95;0.80;;;;;;;;;;5038590;28;20025;-75
2022/02/21 05:11:35;;;;;;;1.35;0.60;;;;;;;;;;5037716;28;20029;-75
2022/02/21 05:14:00;;;;;;;2.17;0.77;;;;;;;;;;5033967;28;20036;-75
2022/02/21 05:16:25;;;;;;;2.55;0.65;;;;;;;;;;5046377;22;20158;-74
2022/02/21 05:18:51;;;;;;;2.58;0.70;;;;;;;;;;5034119;28;20028;-76
2022/02/21 05:21:16;;;;;;;4.72;0.95;;;;;;;;;;5033570;28;20477;-73
2022/02/21 05:23:41;;;;;;;2.08;0.90;;;;;;;;;;5033499;28;20551;-73
2022/02/21 05:26:08;;;;;;;1.85;0.95;;;;;;;;;;5031379;28;20101;-72
2022/02/21 05:28:33;;;;;;;5.72;0.90;;;;;;;;;;5032623;28;20049;-71
2022/02/21 05:30:58;;;;;;;1.98;0.80;;;;;;;;;;5032858;28;20064;-71
2022/02/21 05:33:24;;;;;;;5.78;0.98;;;;;;;;;;5032479;28;20032;-72
2022/02/21 05:35:49;;;;;;;4.38;1.00;;;;;;;;;;5031063;28;20472;-73
2022/02/21 05:38:14;;;;;;;3.42;0.90;;;;;;;;;;5031002;28;20028;-72
2022/02/21 05:40:39;;;;;;;5.18;0.93;;;;;;;;;;5031362;28;20033;-72
2022/02/21 05:43:05;;;;;;;5.03;1.05;;;;;;;;;;5032205;28;20072;-73
2022/02/21 05:45:30;;;;;;;7.90;0.90;;;;;;;;;;5032843;28;20036;-73
2022/02/21 05:47:58;;;;;;;7.50;1.40;;;;;;;;;;5032550;28;20045;-72
2022/02/21 05:50:24;;;;;;;3.22;1.10;;;;;;;;;;5032586;28;20522;-76
2022/02/21 05:52:49;;;;;;;4.75;1.00;;;;;;;;;;5031355;28;20053;-72
2022/02/21 05:55:14;;;;;;;5.75;1.10;;;;;;;;;;5032307;28;20087;-72
2022/02/21 05:57:40;;;;;;;4.13;1.10;;;;;;;;;;5032960;28;20592;-72
2022/02/21 06:00:06;;;;;;;7.68;1.48;;;;;;;;;;5032716;28;20465;-73
2022/02/21 06:02:32;;;;;;;3.72;1.17;;;;;;;;;;5032937;28;20022;-73
2022/02/21 06:04:57;;;;;;;4.43;1.00;;;;;;;;;;5032350;28;20010;-73
2022/02/21 06:07:22;;;;;;;6.13;0.93;;;;;;;;;;5031578;28;20389;-74
2022/02/21 06:09:48;;;;;;;3.88;0.93;;;;;;;;;;5033298;28;20013;-73
2022/02/21 06:12:13;;;;;;;4.20;1.00;;;;;;;;;;5032838;28;20025;-73
2022/02/21 06:14:38;;;;;;;7.63;1.17;;;;;;;;;;5033572;28;20025;-73
2022/02/21 06:17:04;;;;;;;2.72;0.90;;;;;;;;;;5033554;28;20476;-74
2022/02/21 06:19:29;;;;;;;2.85;0.88;;;;;;;;;;5032954;28;20381;-72
2022/02/21 06:21:56;;;;;;;2.28;0.95;;;;;;;;;;5032299;28;20021;-74
2022/02/21 06:24:21;;;;;;;4.45;0.60;;;;;;;;;;5032335;28;20028;-77
2022/02/21 06:26:46;;;;;;;4.68;0.90;;;;;;;;;;5032674;28;20396;-73
2022/02/21 06:29:14;;;;;;;2.97;0.60;;;;;;;;;;5032399;28;20424;-74
2022/02/21 06:31:39;;;;;;;2.55;0.80;;;;;;;;;;5032523;28;20104;-73
2022/02/21 06:34:07;;;;;;;0.95;0.40;;;;;;;;;;5032365;28;20480;-73
2022/02/21 06:36:32;;;;;;;1.50;0.50;;;;;;;;;;5032283;28;20093;-74
2022/02/21 06:38:57;;;;;;;2.97;0.95;;;;;;;;;;5031207;28;20457;-73
2022/02/21 06:41:23;;;;;;;1.98;0.68;;;;;;;;;;5032550;28;20010;-73
2022/02/21 06:43:49;;;;;;;4.18;0.60;;;;;;;;;;5032725;28;20087;-72
2022/02/21 06:46:14;;;;;;;4.28;1.23;;;;;;;;;;5031417;28;20028;-72
2022/02/21 06:48:39;;;;;;;4.00;1.27;;;;;;;;;;5030954;28;20036;-72
2022/02/21 06:51:05;;;;;;;3.90;1.23;;;;;;;;;;5032241;28;20028;-74
2022/02/21 06:53:30;;;;;;;5.25;0.90;;;;;;;;;;5031797;28;20459;-72
2022/02/21 06:55:55;;;;;;;3.20;0.80;;;;;;;;;;5031868;28;20030;-73
2022/02/21 06:58:21;;;;;;;8.25;1.20;;;;;;;;;;5032053;28;20432;-74
2022/02/21 07:00:47;;;;;;;4.10;0.90;;;;;;;;;;5032166;28;20484;-73
2022/02/21 07:03:12;;;;;;;7.57;1.02;;;;;;;;;;5031820;28;20036;-74
2022/02/21 07:05:39;;;;;;;4.13;0.93;;;;;;;;;;5031731;28;20064;-74
2022/02/21 07:08:04;;;;;;;2.90;0.95;;;;;;;;;;5034874;28;20025;-74
2022/02/21 07:10:30;;;;;;;3.72;1.10;;;;;;;;;;5032170;28;20109;-72
2022/02/21 07:12:55;;;;;;;2.30;0.85;;;;;;;;;;5033457;28;20022;-72
2022/02/21 07:15:20;;;;;;;6.32;1.02;;;;;;;;;;5034387;28;20033;-72
2022/02/21 07:17:46;;;;;;;11.18;1.05;;;;;;;;;;5033964;28;20121;-72
2022/02/21 07:20:15;;;;;;;6.70;0.90;;;;;;;;;;5035073;28;20064;-75
2022/02/21 07:22:41;;;;;;;5.85;1.48;;;;;;;;;;5032611;28;20028;-73
2022/02/21 07:25:11;;;;;;;6.22;1.20;;;;;;;;;;5035256;28;20018;-73
2022/02/21 07:27:41;;;;;;;5.35;1.25;;;;;;;;;;5033855;28;20036;-72
2022/02/21 07:30:07;;;;;;;11.85;1.52;;;;;;;;;;5035421;28;20112;-72
2022/02/21 07:32:34;;;;;;;10.35;2.10;;;;;;;;;;5032967;28;20022;-74
2022/02/21 07:34:59;;;;;;;8.57;1.45;;;;;;;;;;5033427;28;20049;-73
2022/02/21 07:37:25;;;;;;;6.85;0.90;;;;;;;;;;5034322;28;20053;-73
2022/02/21 07:39:56;;;;;;;6.40;1.20;;;;;;;;;;5033830;28;20048;-72
2022/02/21 07:42:22;;;;;;;8.75;1.55;;;;;;;;;;5035572;28;20485;-74
2022/02/21 07:44:50;;;;;;;6.60;1.25;;;;;;;;;;5037185;28;20032;-72
2022/02/21 07:47:16;;;;;;;10.73;1.40;;;;;;;;;;5036413;28;20079;-73
2022/02/21 07:49:41;;;;;;;6.72;1.30;;;;;;;;;;5034756;28;20037;-73
2022/02/21 07:52:09;;;;;;;6.65;1.33;;;;;;;;;;5034969;28;20029;-72
2022/02/21 07:54:35;;;;;;;3.47;1.05;;;;;;;;;;5037284;28;20480;-73
2022/02/21 07:57:05;;;;;;;10.27;1.35;;;;;;;;;;5036948;28;20044;-73
2022/02/21 07:59:30;;;;;;;5.20;1.40;;;;;;;;;;5035844;28;20048;-73
2022/02/21 08:01:56;;;;;;;4.85;1.00;;;;;;;;;;5036250;28;20025;-72
2022/02/21 08:04:22;;;;;;;6.80;1.25;;;;;;;;;;5037227;28;20013;-75
2022/02/21 08:06:47;;;;;;;6.05;1.20;;;;;;;;;;5038967;28;20021;-74
2022/02/21 08:09:13;;;;;;;7.15;1.60;;;;;;;;;;5039959;28;20016;-75
2022/02/21 08:11:39;;;;;;;4.32;1.10;;;;;;;;;;5036526;28;20021;-72
2022/02/21 08:14:05;;;;;;;3.78;0.90;;;;;;;;;;5038903;28;20091;-74
2022/02/21 08:16:30;;;;;;;5.05;0.80;;;;;;;;;;5037665;28;20065;-74
2022/02/21 08:18:59;;;;;;;5.97;1.10;;;;;;;;;;5037603;28;20455;-77
2022/02/21 08:21:24;;;;;;;6.15;0.80;;;;;;;;;;5036673;28;20017;-73
2022/02/21 08:23:50;;;;;;;6.50;0.88;;;;;;;;;;5038329;28;20028;-75
2022/02/21 08:26:16;;;;;;;5.47;1.30;;;;;;;;;;5038381;28;20017;-71
2022/02/21 08:28:41;;;;;;;6.70;1.02;;;;;;;;;;5038852;28;20009;-72
2022/02/21 08:31:07;;;;;;;4.50;1.02;;;;;;;;;;5038533;28;20021;-74
2022/02/21 08:33:33;;;;;;;3.40;0.80;;;;;;;;;;5038213;28;20030;-72
2022/02/21 08:35:58;;;;;;;7.75;0.77;;;;;;;;;;5036684;28;20228;-72
2022/02/21 08:38:23;;;;;;;2.90;0.70;;;;;;;;;;5035741;28;20104;-72
2022/02/21 08:40:49;;;;;;;4.00;0.73;;;;;;;;;;5037987;28;20095;-72
2022/02/21 08:43:14;;;;;;;3.60;0.68;;;;;;;;;;5036851;28;20013;-72
2022/02/21 08:45:40;;;;;;;5.40;1.10;;;;;;;;;;5035459;28;20041;-72
2022/02/21 08:48:05;;;;;;;6.53;0.82;;;;;;;;;;5035991;28;20101;-71
2022/02/21 08:50:31;;;;;;;3.85;1.10;;;;;;;;;;5036326;28;20079;-72
2022/02/21 08:52:56;;;;;;;2.78;0.85;;;;;;;;;;5036943;28;20025;-74
2022/02/21 08:55:22;;;;;;;3.67;0.70;;;;;;;;;;5036406;28;20396;-74
2022/02/21 08:57:47;;;;;;;7.70;1.20;;;;;;;;;;5036420;28;20014;-73
2022/02/21 09:00:14;;;;;;;4.82;0.80;;;;;;;;;;5033466;28;20028;-73
2022/02/21 09:02:39;;;;;;;4.85;0.80;;;;;;;;;;5034926;28;20025;-71
2022/02/21 09:05:05;;;;;;;2.60;1.17;;;;;;;;;;5035121;28;20380;-73
2022/02/21 09:07:30;;;;;;;3.60;0.85;;;;;;;;;;5035057;28;20029;-72
2022/02/21 09:09:55;;;;;;;9.43;1.48;;;;;;;;;;5035947;28;20104;-73
2022/02/21 09:12:21;;;;;;;6.40;1.10;;;;;;;;;;5034845;28;20060;-73
2022/02/21 09:14:51;;;;;;;2.42;1.25;;;;;;;;;;5034834;28;20021;-73
2022/02/21 09:17:17;;;;;;;5.43;0.95;;;;;;;;;;5034198;28;20031;-77
2022/02/21 09:19:44;;;;;;;5.47;0.73;;;;;;;;;;5034706;28;20100;-73
2022/02/21 09:22:10;;;;;;;5.70;0.63;;;;;;;;;;5033230;28;20036;-73
2022/02/21 09:24:35;;;;;;;2.50;1.05;;;;;;;;;;5033190;28;20018;-73
2022/02/21 09:27:00;;;;;;;2.33;0.73;;;;;;;;;;5033505;28;20056;-72
2022/02/21 09:29:26;;;;;;;5.80;1.10;;;;;;;;;;5034466;28;20112;-72
2022/02/21 09:31:53;;;;;;;5.68;0.80;;;;;;;;;;5034376;28;20022;-72
2022/02/21 09:34:18;;;;;;;1.30;0.60;;;;;;;;;;5033542;28;20112;-75
2022/02/21 09:36:43;;;;;;;3.38;0.98;;;;;;;;;;5033495;28;20099;-76
2022/02/21 09:39:09;;;;;;;3.63;0.80;;;;;;;;;;5033523;28;20017;-75
2022/02/21 09:41:34;;;;;;;2.28;0.80;;;;;;;;;;5034889;28;20017;-74
2022/02/21 09:44:00;;;;;;;2.78;0.70;;;;;;;;;;5035148;28;20048;-74
2022/02/21 09:46:28;;;;;;;2.72;0.60;;;;;;;;;;5035591;28;20063;-73
2022/02/21 09:48:54;;;;;;;4.57;0.88;;;;;;;;;;5036479;28;20508;-73
2022/02/21 09:51:20;;;;;;;3.25;0.80;;;;;;;;;;5032492;28;20078;-74
2022/02/21 09:53:46;;;;;;;4.82;1.20;;;;;;;;;;5033484;28;20033;-73
2022/02/21 09:56:11;;;;;;;6.45;0.90;;;;;;;;;;5033854;28;20029;-72
2022/02/21 09:58:36;;;;;;;4.88;0.85;;;;;;;;;;5035486;28;20389;-73
2022/02/21 10:01:02;;;;;;;2.58;0.30;;;;;;;;;;5034734;28;20048;-73
2022/02/21 10:03:55;;;;;;;5.45;0.55;;;;;;;;;;5032468;28;20384;-71
2022/02/21 10:06:22;;;;;;;9.30;0.85;;;;;;;;;;5031397;28;20065;-73
2022/02/21 10:09:10;;;;;;;3.00;0.70;;;;;;;;;;5033951;28;20040;-74
2022/02/21 10:11:37;;;;;;;4.32;0.75;;;;;;;;;;5031463;28;20119;-73
2022/02/21 10:14:13;;;;;;;5.80;0.73;;;;;;;;;;5033446;28;20112;-74
2022/02/21 10:16:49;;;;;;;2.92;0.88;;;;;;;;;;5033517;28;20060;-73
2022/02/21 10:19:20;;;;;;;5.10;0.65;;;;;;;;;;5034446;28;20021;-74
2022/02/21 10:21:51;;;;;;;6.22;1.00;;;;;;;;;;5033850;28;20014;-74
2022/02/21 10:24:16;;;;;;;3.45;0.70;;;;;;;;;;5033814;28;20477;-73
2022/02/21 10:26:42;;;;;;;2.65;0.82;;;;;;;;;;5034778;28;20079;-73
2022/02/21 10:29:07;;;;;;;4.18;0.90;;;;;;;;;;5035604;28;20455;-75
2022/02/21 10:31:33;;;;;;;5.45;1.58;;;;;;;;;;5035042;28;20014;-74
2022/02/21 10:34:00;;;;;;;4.60;0.75;;;;;;;;;;5033023;28;20464;-73
2022/02/21 10:36:33;;;;;;;2.08;0.47;;;;;;;;;;5033585;28;20025;-74
2022/02/21 10:38:59;;;;;;;2.92;0.93;;;;;;;;;;5033507;28;20052;-73
2022/02/21 10:41:37;;;;;;;3.30;0.75;;;;;;;;;;5031516;28;20014;-74
2022/02/21 10:44:22;;;;;;;2.58;1.05;;;;;;;;;;5036093;28;20044;-74
2022/02/21 10:47:01;;;;;;;4.63;0.65;;;;;;;;;;5035251;28;20050;-74
2022/02/21 10:49:27;;;;;;;2.10;0.57;;;;;;;;;;5035725;28;20018;-74
2022/02/21 10:51:55;;;;;;;2.20;0.63;;;;;;;;;;5036731;28;20036;-73
2022/02/21 10:54:26;;;;;;;1.30;0.50;;;;;;;;;;5035917;28;20420;-73
2022/02/21 10:56:52;;;;;;;2.58;0.70;;;;;;;;;;5037500;28;20242;-75
2022/02/21 10:59:21;;;;;;;2.53;0.50;;;;;;;;;;5037646;28;20148;-73
2022/02/21 11:01:47;;;;;;;5.95;0.77;;;;;;;;;;5036688;28;20048;-72
2022/02/21 11:04:12;;;;;;;5.55;0.63;;;;;;;;;;5038385;28;20075;-74
2022/02/21 11:06:38;;;;;;;2.75;0.80;;;;;;;;;;5038629;28;20014;-74
2022/02/21 11:09:04;;;;;;;2.63;0.73;;;;;;;;;;5039491;28;20416;-74
2022/02/21 11:11:32;;;;;;;3.53;1.00;;;;;;;;;;5039062;28;20044;-75
2022/02/21 11:13:58;;;;;;;0.82;0.38;;;;;;;;;;5037169;28;20101;-75
2022/02/21 11:16:23;;;;;;;4.60;1.05;;;;;;;;;;5047544;23;20068;-74
2022/02/21 11:18:49;;;;;;;3.60;0.93;;;;;;;;;;5035100;28;20030;-74
2022/02/21 11:21:14;;;;;;;4.57;1.25;;;;;;;;;;5035433;28;20029;-75
2022/02/21 11:23:39;;;;;;;5.80;1.10;;;;;;;;;;5035025;28;20017;-75
2022/02/21 11:26:13;;;;;;;4.80;1.40;;;;;;;;;;5035774;28;20029;-75
2022/02/21 11:28:42;;;;;;;9.27;1.13;;;;;;;;;;5035583;28;20025;-75
2022/02/21 11:31:08;;;;;;;4.78;0.63;;;;;;;;;;5035881;28;20022;-75
2022/02/21 11:33:53;;;;;;;5.68;1.67;;;;;;;;;;5034939;28;20524;-75
2022/02/21 11:36:20;;;;;;;4.40;0.80;;;;;;;;;;5033733;28;20396;-75
2022/02/21 11:38:46;;;;;;;6.05;0.90;;;;;;;;;;5035007;28;20033;-76
2022/02/21 11:41:13;;;;;;;4.18;1.23;;;;;;;;;;5035673;28;20535;-76
2022/02/21 11:43:39;;;;;;;4.28;1.17;;;;;;;;;;5036353;28;20021;-76
2022/02/21 11:46:05;;;;;;;4.50;1.27;;;;;;;;;;5035792;28;20016;-75
2022/02/21 11:48:50;;;;;;;4.80;1.30;;;;;;;;;;5033646;28;20017;-75
2022/02/21 11:51:29;;;;;;;8.05;1.40;;;;;;;;;;5033362;28;20484;-76
2022/02/21 11:54:15;;;;;;;7.20;0.90;;;;;;;;;;5032822;28;20052;-75
2022/02/21 11:56:49;;;;;;;7.13;1.25;;;;;;;;;;5033245;28;20022;-75
2022/02/21 11:59:20;;;;;;;9.55;1.65;;;;;;;;;;5034934;28;20097;-76
2022/02/21 12:01:49;;;;;;;3.63;0.98;;;;;;;;;;5034719;28;20013;-75
2022/02/21 12:04:15;;;;;;;4.43;0.93;;;;;;;;;;5033242;28;20072;-75
2022/02/21 12:06:49;;;;;;;5.28;0.90;;;;;;;;;;5034939;28;20017;-74
2022/02/21 12:09:15;;;;;;;5.43;1.20;;;;;;;;;;5035225;28;20377;-75
2022/02/21 12:11:40;;;;;;;7.88;1.70;;;;;;;;;;5033698;28;20024;-75
2022/02/21 12:14:08;;;;;;;6.07;0.88;;;;;;;;;;5034842;28;20026;-75
2022/02/21 12:16:54;;;;;;;5.55;1.05;;;;;;;;;;5034284;28;20026;-75
2022/02/21 12:19:26;;;;;;;5.70;1.10;;;;;;;;;;5035047;28;20034;-74
2022/02/21 12:22:08;;;;;;;5.05;1.42;;;;;;;;;;5036341;28;20092;-76
2022/02/21 12:24:33;;;;;;;5.75;1.10;;;;;;;;;;5036289;28;20021;-75
2022/02/21 12:27:12;;;;;;;7.05;1.48;;;;;;;;;;5035398;28;20029;-74
2022/02/21 12:29:38;;;;;;;6.82;1.73;;;;;;;;;;5035480;28;20017;-76
2022/02/21 12:32:05;;;;;;;6.75;1.30;;;;;;;;;;5037341;28;20033;-74
2022/02/21 12:34:35;;;;;;;5.20;1.17;;;;;;;;;;5037027;28;20026;-75
2022/02/21 12:37:02;;;;;;;6.32;1.08;;;;;;;;;;5035884;28;20111;-76
2022/02/21 12:39:31;;;;;;;6.38;1.42;;;;;;;;;;5034472;28;20068;-76
2022/02/21 12:41:57;;;;;;;7.38;1.45;;;;;;;;;;5036227;28;20022;-74
2022/02/21 12:44:25;;;;;;;6.35;1.58;;;;;;;;;;5037297;28;20020;-74
2022/02/21 12:46:54;;;;;;;3.40;1.20;;;;;;;;;;5037179;28;20381;-76
2022/02/21 12:49:25;;;;;;;7.93;1.25;;;;;;;;;;5034532;28;20017;-76
2022/02/21 12:51:51;;;;;;;4.00;1.10;;;;;;;;;;5035237;28;20128;-75
2022/02/21 12:54:17;;;;;;;11.05;0.95;;;;;;;;;;5033966;28;20032;-76
2022/02/21 12:56:58;;;;;;;5.82;0.90;;;;;;;;;;5032208;28;20022;-74
2022/02/21 12:59:26;;;;;;;7.63;0.93;;;;;;;;;;5033164;28;20049;-76
2022/02/21 13:01:55;;;;;;;1.77;0.70;;;;;;;;;;5034262;28;20480;-75
2022/02/21 13:04:21;;;;;;;2.70;1.85;;;;;;;;;;5031269;28;20029;-75
2022/02/21 13:06:47;;;;;;;4.18;0.55;;;;;;;;;;5033482;28;20454;-75
2022/02/21 13:09:12;;;;;;;6.15;1.33;;;;;;;;;;5033670;28;20018;-74
2022/02/21 13:11:38;;;;;;;2.05;0.50;;;;;;;;;;5032048;28;20017;-74
2022/02/21 13:14:04;;;;;;;3.95;1.10;;;;;;;;;;5032125;28;20052;-76
2022/02/21 13:16:31;;;;;;;4.47;1.02;;;;;;;;;;5032175;28;20021;-74
2022/02/21 13:19:03;;;;;;;2.95;0.50;;;;;;;;;;5032441;28;20021;-76
2022/02/21 13:21:33;;;;;;;3.47;1.05;;;;;;;;;;5033172;28;20018;-76
2022/02/21 13:23:59;;;;;;;5.30;0.80;;;;;;;;;;5033214;28;20029;-75
2022/02/21 13:26:24;;;;;;;9.57;1.00;;;;;;;;;;5031826;28;20021;-75
2022/02/21 13:28:49;;;;;;;3.95;1.13;;;;;;;;;;5032257;28;20396;-75
2022/02/21 13:31:15;;;;;;;4.18;0.88;;;;;;;;;;5032762;28;20416;-76
2022/02/21 13:33:41;;;;;;;5.05;0.90;;;;;;;;;;5031937;28;20488;-76
2022/02/21 13:36:06;;;;;;;6.25;0.95;;;;;;;;;;5033595;28;20021;-76
2022/02/21 13:38:33;;;;;;;4.93;0.52;;;;;;;;;;5033775;28;20075;-75
2022/02/21 13:40:59;;;;;;;5.38;0.70;;;;;;;;;;5034005;28;20017;-75
2022/02/21 13:43:24;;;;;;;2.97;1.48;;;;;;;;;;5033780;28;20445;-76
2022/02/21 13:45:52;;;;;;;5.25;0.77;;;;;;;;;;5032834;28;20013;-76
2022/02/21 13:48:23;;;;;;;2.35;0.57;;;;;;;;;;5035790;28;20021;-76
2022/02/21 13:50:50;;;;;;;2.35;0.80;;;;;;;;;;5034644;28;20489;-76
2022/02/21 13:53:27;;;;;;;4.88;1.08;;;;;;;;;;5033714;28;20013;-76
2022/02/21 13:55:54;;;;;;;3.35;0.98;;;;;;;;;;5033927;28;20098;-74
2022/02/21 13:58:31;;;;;;;4.20;0.52;;;;;;;;;;5034220;28;20024;-75
2022/02/21 14:01:05;;;;;;;4.47;0.70;;;;;;;;;;5033421;28;20013;-75
2022/02/21 14:03:36;;;;;;;1.23;0.45;;;;;;;;;;5031755;28;20397;-76
2022/02/21 14:06:08;;;;;;;2.05;0.70;;;;;;;;;;5031915;28;20155;-74
2022/02/21 14:08:37;;;;;;;2.63;0.65;;;;;;;;;;5032873;28;20029;-76
2022/02/21 14:11:02;;;;;;;2.08;0.52;;;;;;;;;;5032729;28;20036;-76
2022/02/21 14:13:29;;;;;;;4.63;0.68;;;;;;;;;;5030905;28;20021;-76
2022/02/21 14:15:55;;;;;;;2.85;0.80;;;;;;;;;;5032131;28;20438;-74
2022/02/21 14:18:21;;;;;;;4.68;0.88;;;;;;;;;;5037451;28;20053;-75
2022/02/21 14:20:46;;;;;;;3.42;1.02;;;;;;;;;;5037169;28;20049;-75
2022/02/21 14:23:11;;;;;;;4.82;0.98;;;;;;;;;;5036806;28;20025;-75
2022/02/21 14:25:37;;;;;;;6.15;0.88;;;;;;;;;;5036394;28;20064;-75
2022/02/21 14:28:02;;;;;;;3.03;0.75;;;;;;;;;;5035539;28;20031;-76
2022/02/21 14:30:27;;;;;;;5.35;1.50;;;;;;;;;;5036895;28;20028;-76
2022/02/21 14:32:55;;;;;;;5.97;1.23;;;;;;;;;;5036293;28;20385;-76
2022/02/21 14:35:21;;;;;;;2.47;0.70;;;;;;;;;;5034962;28;20026;-76
2022/02/21 14:37:46;;;;;;;3.47;0.77;;;;;;;;;;5036271;28;20392;-76
2022/02/21 14:40:12;;;;;;;2.40;0.45;;;;;;;;;;5035137;28;20020;-74